Time;durP1;ratioP1;P1;durP2;ratioP2;P2;SDS_P1;SDS_P2;PMS_P1;PMS_P2;Temp;Humidity;BMP_temperature;BMP_pressure;BME280_temperature;BME280_humidity;BME280_pressure;Samples;Min_cycle;Max_cycle;Signal;HPM_P1;HPM_P2
2021/04/22 00:06:38;;;;;;;17.8;15.1;;;;;;;8.95;96.69824;98285.71;;;;
2021/04/22 00:16:37;;;;;;;18.5;14.1;;;;;;;8.88;95.59863;98296.08;;;;
2021/04/22 00:26:36;;;;;;;16.1;14.4;;;;;;;8.73;96.89258;98295.61;;;;
2021/04/22 00:36:34;;;;;;;17.4;14.4;;;;;;;8.46;97.57031;98296.47;;;;
2021/04/22 00:46:33;;;;;;;22;17.4;;;;;;;8.45;97.96094;98308.3;;;;
2021/04/22 00:56:31;;;;;;;21.8;18.1;;;;;;;8.48;98.50195;98287;;;;
2021/04/22 01:06:30;;;;;;;22;19.4;;;;;;;8.43;98.24414;98278.27;;;;
2021/04/22 01:16:29;;;;;;;24.3;19.4;;;;;;;8.26;98.40723;98286.11;;;;
2021/04/22 01:26:27;;;;;;;28.7;20;;;;;;;8.25;98.26953;98295.25;;;;
2021/04/22 01:36:26;;;;;;;32.8;20.7;;;;;;;8.41;97.55957;98293.87;;;;
2021/04/22 01:46:26;;;;;;;22;19.9;;;;;;;8.5;97.93945;98298.23;;;;
2021/04/22 01:56:26;;;;;;;26.7;18.9;;;;;;;8.52;98.1416;98289.88;;;;
2021/04/22 02:06:22;;;;;;;20.1;18.1;;;;;;;8.55;97.68359;98287.39;;;;
2021/04/22 02:16:20;;;;;;;23;17.8;;;;;;;8.59;97.73438;98292.95;;;;
2021/04/22 02:26:19;;;;;;;20.8;18.7;;;;;;;8.67;98.90137;98303;;;;
2021/04/22 02:36:18;;;;;;;21.3;16.8;;;;;;;8.65;100;98283.69;;;;
2021/04/22 02:46:16;;;;;;;24;17.9;;;;;;;8.47;100;98276.55;;;;
2021/04/22 02:56:15;;;;;;;24.2;19.9;;;;;;;8.41;100;98256.27;;;;
2021/04/22 03:06:14;;;;;;;28.3;22.7;;;;;;;8.16;100;98256.8;;;;
2021/04/22 03:16:12;;;;;;;26.2;19.9;;;;;;;8.04;100;98246.55;;;;
2021/04/22 03:26:11;;;;;;;22.7;19.3;;;;;;;7.92;100;98238.19;;;;
2021/04/22 03:36:10;;;;;;;24.4;19.4;;;;;;;7.71;100;98243.15;;;;
2021/04/22 03:46:08;;;;;;;19.5;16.5;;;;;;;7.53;100;98246.73;;;;
2021/04/22 03:56:07;;;;;;;21.5;17;;;;;;;7.35;100;98251.05;;;;
2021/04/22 04:06:05;;;;;;;16.4;14.2;;;;;;;7.35;100;98258.3;;;;
2021/04/22 04:16:04;;;;;;;14.9;11.9;;;;;;;7.47;100;98258.61;;;;
2021/04/22 04:26:02;;;;;;;14.8;11;;;;;;;7.68;100;98269.77;;;;
2021/04/22 04:36:01;;;;;;;15.8;11.4;;;;;;;8.05;100;98281.13;;;;
2021/04/22 04:45:59;;;;;;;16.5;11.2;;;;;;;8.49;100;98303.91;;;;
2021/04/22 04:55:58;;;;;;;14;10.7;;;;;;;8.79;100;98316.69;;;;
2021/04/22 05:05:57;;;;;;;17.1;13.5;;;;;;;8.9;100;98328.02;;;;
2021/04/22 05:15:56;;;;;;;18.4;12.7;;;;;;;9.05;100;98344.61;;;;
2021/04/22 05:25:55;;;;;;;16.6;13.8;;;;;;;9.32;100;98351.78;;;;
2021/04/22 05:35:53;;;;;;;18.1;16.4;;;;;;;9.72;100;98363.45;;;;
2021/04/22 05:45:52;;;;;;;26;21.5;;;;;;;9.97;100;98375.48;;;;
2021/04/22 05:55:50;;;;;;;28.8;19.6;;;;;;;9.84;100;98389.81;;;;
2021/04/22 06:05:49;;;;;;;24.8;20.7;;;;;;;9.71;100;98391.48;;;;
2021/04/22 06:15:48;;;;;;;27.6;21;;;;;;;9.79;100;98400.72;;;;
2021/04/22 06:25:47;;;;;;;21.7;17.5;;;;;;;9.75;100;98405.92;;;;
2021/04/22 06:35:46;;;;;;;25.2;20.1;;;;;;;9.68;100;98412.83;;;;
2021/04/22 06:45:45;;;;;;;26.3;22.2;;;;;;;9.98;100;98420.95;;;;
2021/04/22 06:55:43;;;;;;;32.1;22.4;;;;;;;10.31;100;98424.16;;;;
2021/04/22 07:05:42;;;;;;;24;21.6;;;;;;;10.84;99.14648;98444.84;;;;
2021/04/22 07:15:41;;;;;;;24.5;21.5;;;;;;;11.42;95.41211;98466.1;;;;
2021/04/22 07:25:40;;;;;;;26;23.2;;;;;;;10.68;95.23047;98498.38;;;;
2021/04/22 07:35:39;;;;;;;34.1;24.5;;;;;;;10.57;95.75488;98497.05;;;;
2021/04/22 07:45:40;;;;;;;28.5;22.3;;;;;;;10.43;97.24902;98496.34;;;;
2021/04/22 07:55:41;;;;;;;35.5;24.2;;;;;;;9.93;98.57129;98509.9;;;;
2021/04/22 08:05:38;;;;;;;28.6;23.4;;;;;;;9.52;100;98511.91;;;;
2021/04/22 08:15:40;;;;;;;31.6;27.1;;;;;;;9.35;100;98523.3;;;;
2021/04/22 08:25:33;;;;;;;40.5;29.8;;;;;;;9.47;100;98544.31;;;;
2021/04/22 08:35:32;;;;;;;27.2;22.5;;;;;;;9.15;100;98545.23;;;;
2021/04/22 08:45:31;;;;;;;23.1;18.7;;;;;;;8.53;100;98566.25;;;;
2021/04/22 08:55:30;;;;;;;21.9;15.7;;;;;;;7.87;100;98613.93;;;;
2021/04/22 09:05:28;;;;;;;14.9;12;;;;;;;7.41;100;98633.27;;;;
2021/04/22 09:15:27;;;;;;;9.5;7.8;;;;;;;6.83;100;98661.98;;;;
2021/04/22 09:25:26;;;;;;;11.1;8.2;;;;;;;6.37;100;98674.91;;;;
2021/04/22 09:35:25;;;;;;;13.2;8.9;;;;;;;5.89;100;98681.88;;;;
2021/04/22 09:45:23;;;;;;;8.3;7.3;;;;;;;5.81;100;98687.75;;;;
2021/04/22 09:55:21;;;;;;;11.3;6.7;;;;;;;5.46;100;98706.58;;;;
2021/04/22 10:05:19;;;;;;;11;8;;;;;;;5.26;100;98712.77;;;;
2021/04/22 10:15:18;;;;;;;15.6;8.1;;;;;;;4.95;100;98714.67;;;;
2021/04/22 10:25:16;;;;;;;9.4;7.3;;;;;;;5.75;100;98707.57;;;;
2021/04/22 10:35:15;;;;;;;11.2;7.4;;;;;;;6;100;98691.42;;;;
2021/04/22 10:45:13;;;;;;;13.1;8.1;;;;;;;6.37;100;98703.55;;;;
2021/04/22 10:55:11;;;;;;;13;9.2;;;;;;;6.1;100;98712;;;;
2021/04/22 11:05:10;;;;;;;14.1;10.6;;;;;;;6.11;100;98734.98;;;;
2021/04/22 11:15:08;;;;;;;13.8;9.1;;;;;;;6.74;100;98722.58;;;;
2021/04/22 11:25:07;;;;;;;16.8;11.6;;;;;;;7.47;100;98703.71;;;;
2021/04/22 11:35:06;;;;;;;16.1;11.6;;;;;;;7.41;100;98711.02;;;;
2021/04/22 11:45:04;;;;;;;14.7;8.3;;;;;;;7.6;100;98719.16;;;;
2021/04/22 11:55:03;;;;;;;11;8.3;;;;;;;7.43;100;98708.04;;;;
2021/04/22 12:05:01;;;;;;;9.8;7.9;;;;;;;7.62;100;98703.56;;;;
2021/04/22 12:15:00;;;;;;;11.4;8.7;;;;;;;7.6;100;98689.65;;;;
2021/04/22 12:24:59;;;;;;;16.5;11.3;;;;;;;7.74;100;98682.48;;;;
2021/04/22 12:34:57;;;;;;;15.4;10.9;;;;;;;8.19;100;98694.53;;;;
2021/04/22 12:44:56;;;;;;;13;9.4;;;;;;;8.75;99.69922;98666.88;;;;
2021/04/22 12:54:55;;;;;;;18.5;14.8;;;;;;;9.59;100;98668.35;;;;
2021/04/22 13:04:54;;;;;;;18;11.6;;;;;;;9.77;94.22461;98669.35;;;;
2021/04/22 13:14:52;;;;;;;14.9;11.7;;;;;;;9.52;91.10156;98673.33;;;;
2021/04/22 13:24:51;;;;;;;16.8;9.9;;;;;;;9.32;87.46289;98663.75;;;;
2021/04/22 13:34:50;;;;;;;13.2;9.6;;;;;;;9.66;81.98145;98657.19;;;;
2021/04/22 13:44:49;;;;;;;16.2;10;;;;;;;9.8;84.09961;98639.94;;;;
2021/04/22 13:54:48;;;;;;;14.5;11.3;;;;;;;9.99;82.58398;98618.29;;;;
2021/04/22 14:04:48;;;;;;;18.6;12.2;;;;;;;10.3;81.88867;98613.84;;;;
2021/04/22 14:14:46;;;;;;;16.5;11.6;;;;;;;10.88;79.06445;98613.77;;;;
2021/04/22 14:24:44;;;;;;;16.4;10.9;;;;;;;10.92;73.75195;98603.97;;;;
2021/04/22 14:34:43;;;;;;;13.2;8.5;;;;;;;10.98;73.17285;98599.22;;;;
2021/04/22 14:44:42;;;;;;;12.9;8.4;;;;;;;10.91;72.51855;98606.95;;;;
2021/04/22 14:54:41;;;;;;;10.4;8.8;;;;;;;11.22;72.90918;98602.36;;;;
2021/04/22 15:04:40;;;;;;;14.9;9.4;;;;;;;11.58;69.32129;98604.88;;;;
2021/04/22 15:14:39;;;;;;;17.6;9.5;;;;;;;12.48;69.31445;98597.86;;;;
2021/04/22 15:24:38;;;;;;;15.1;8.9;;;;;;;14.47;59.39258;98602.87;;;;
2021/04/22 15:34:38;;;;;;;11;7.2;;;;;;;15.27;50.29199;98610.71;;;;
2021/04/22 15:44:39;;;;;;;11.7;7.4;;;;;;;15.39;43.16992;98621.57;;;;
2021/04/22 15:54:39;;;;;;;13.6;7;;;;;;;16.11;40.71191;98631.66;;;;
2021/04/22 16:04:38;;;;;;;7.4;3.8;;;;;;;16.06;29.12695;98635.43;;;;
2021/04/22 16:14:39;;;;;;;5.9;3.1;;;;;;;16.43;27.19141;98652.45;;;;
2021/04/22 16:24:35;;;;;;;7.9;3.5;;;;;;;13.15;31.33887;98651.41;;;;
2021/04/22 16:34:34;;;;;;;11.6;5.4;;;;;;;11.44;35.31641;98658.17;;;;
2021/04/22 16:44:34;;;;;;;6.5;4.1;;;;;;;10.41;37.43652;98662.91;;;;
2021/04/22 16:54:33;;;;;;;6.4;3;;;;;;;9.61;38.64355;98672.33;;;;
2021/04/22 17:04:31;;;;;;;7.6;5.2;;;;;;;9.18;39.28613;98678.27;;;;
2021/04/22 17:14:30;;;;;;;9;5.1;;;;;;;8.79;41.98926;98682.13;;;;
2021/04/22 17:24:30;;;;;;;15.7;8.4;;;;;;;8.2;43.9707;98689.97;;;;
2021/04/22 17:34:27;;;;;;;12;6.6;;;;;;;7.47;46.9502;98709.08;;;;
2021/04/22 17:44:26;;;;;;;11.1;6.9;;;;;;;6.86;47.92285;98717.68;;;;
2021/04/22 17:54:24;;;;;;;20;10.5;;;;;;;6.5;46.60742;98729.7;;;;
2021/04/22 18:04:25;;;;;;;13.8;10.8;;;;;;;6.27;45.79492;98741.89;;;;
2021/04/22 18:14:21;;;;;;;16.2;9.8;;;;;;;5.63;48.9209;98749.03;;;;
2021/04/22 18:24:19;;;;;;;19.7;11.5;;;;;;;5.12;50.61621;98764.34;;;;
2021/04/22 18:34:18;;;;;;;13;11.2;;;;;;;4.88;51.88867;98783.56;;;;
2021/04/22 18:44:16;;;;;;;18.4;9.9;;;;;;;4.66;51.7832;98792.86;;;;
2021/04/22 18:54:14;;;;;;;16;11.6;;;;;;;4.45;53.30469;98808.02;;;;
2021/04/22 19:04:12;;;;;;;25.4;15.2;;;;;;;4.45;55.5;98818.69;;;;
2021/04/22 19:14:11;;;;;;;30.4;20.7;;;;;;;4.63;57.04395;98814.73;;;;
2021/04/22 19:24:09;;;;;;;28.1;18;;;;;;;4.84;55.91992;98819.88;;;;
2021/04/22 19:34:07;;;;;;;25.2;18.7;;;;;;;5.17;55.79492;98842.63;;;;
2021/04/22 19:44:05;;;;;;;26.9;18;;;;;;;5.25;57.35156;98851.97;;;;
2021/04/22 19:54:03;;;;;;;20.4;16.8;;;;;;;5.25;59.07715;98865.33;;;;
2021/04/22 20:04:02;;;;;;;22.3;16.6;;;;;;;5.29;59.16211;98859.2;;;;
2021/04/22 20:14:00;;;;;;;28.6;16.7;;;;;;;5.33;61.46289;98870.16;;;;
2021/04/22 20:23:58;;;;;;;28.9;17;;;;;;;5.57;58.9541;98882.73;;;;
2021/04/22 20:33:57;;;;;;;18.7;15.1;;;;;;;5.65;56.77539;98888.61;;;;
2021/04/22 20:43:55;;;;;;;20.4;16;;;;;;;5.64;57.4375;98906.52;;;;
2021/04/22 20:53:53;;;;;;;28.1;15.3;;;;;;;5.76;56.25195;98924.98;;;;
2021/04/22 21:03:52;;;;;;;20.7;13.1;;;;;;;5.69;59.22656;98916.42;;;;
2021/04/22 21:13:50;;;;;;;18.3;12.9;;;;;;;5.56;61.58691;98926.56;;;;
2021/04/22 21:23:48;;;;;;;21.7;12.3;;;;;;;5.27;61.57813;98938.03;;;;
2021/04/22 21:33:47;;;;;;;27.9;16.4;;;;;;;5.11;63.37793;98941.7;;;;
2021/04/22 21:43:45;;;;;;;16.1;14.2;;;;;;;4.81;65.98242;98951.23;;;;
2021/04/22 21:53:43;;;;;;;26.3;18.4;;;;;;;4.54;67.34766;98970.07;;;;
2021/04/22 22:03:42;;;;;;;16.9;13.2;;;;;;;4.44;66.94141;98967.31;;;;
2021/04/22 22:13:40;;;;;;;22.8;13.3;;;;;;;4.24;66.54297;98983.2;;;;
2021/04/22 22:23:39;;;;;;;21.1;14.3;;;;;;;3.85;67.71875;98984.52;;;;
2021/04/22 22:33:36;;;;;;;26.5;13.2;;;;;;;3.65;68.02051;98979.8;;;;
2021/04/22 22:43:34;;;;;;;16.2;10.5;;;;;;;3.2;70.11719;98977.48;;;;
2021/04/22 22:53:32;;;;;;;15.1;11.7;;;;;;;2.75;72.53027;98984.92;;;;
2021/04/22 23:03:30;;;;;;;17;11.3;;;;;;;2.45;75.4707;98980.02;;;;
2021/04/22 23:13:28;;;;;;;18.2;11.1;;;;;;;2.33;76.62402;98976.64;;;;
2021/04/22 23:23:26;;;;;;;18.6;10;;;;;;;2.44;78.86719;98978.39;;;;
2021/04/22 23:33:24;;;;;;;18.4;10.5;;;;;;;2.47;78.92969;98976.05;;;;
2021/04/22 23:43:22;;;;;;;13.9;8.5;;;;;;;2.73;79.57324;98981.72;;;;
2021/04/22 23:53:20;;;;;;;17.1;9;;;;;;;2.94;79.10352;98992.38;;;;
